Time;durP1;ratioP1;P1;durP2;ratioP2;P2;SDS_P1;SDS_P2;PMS_P1;PMS_P2;Temp;Humidity;BMP_temperature;BMP_pressure;BME280_temperature;BME280_humidity;BME280_pressure;Samples;Min_cycle;Max_cycle;Signal;HPM_P1;HPM_P2
2022/05/21 00:00:29;;;;;;;15.45;6.30;;;384.10;2329.60;;;;;;5050380;28;20051;-77
2022/05/21 00:02:55;;;;;;;23.88;6.95;;;384.20;2329.60;;;;;;5051446;28;20068;-76
2022/05/21 00:05:23;;;;;;;19.05;7.00;;;384.20;2329.60;;;;;;5051460;28;20510;-76
2022/05/21 00:07:49;;;;;;;16.58;6.75;;;384.20;2329.60;;;;;;5049792;28;20025;-76
2022/05/21 00:10:16;;;;;;;12.82;6.82;;;384.20;2329.60;;;;;;5051242;28;20404;-76
2022/05/21 00:12:43;;;;;;;13.30;6.97;;;384.30;2329.60;;;;;;5051473;28;20079;-78
2022/05/21 00:15:11;;;;;;;17.52;6.57;;;384.20;2329.60;;;;;;5051589;28;20048;-76
2022/05/21 00:17:37;;;;;;;23.17;6.93;;;384.20;2329.60;;;;;;5050070;28;20365;-77
2022/05/21 00:20:03;;;;;;;16.52;7.80;;;384.20;2329.60;;;;;;5051121;28;20111;-77
2022/05/21 00:22:29;;;;;;;19.80;7.80;;;384.10;2329.60;;;;;;5050091;28;20369;-76
2022/05/21 00:24:55;;;;;;;15.85;7.10;;;384.00;2329.60;;;;;;5051452;28;20032;-76
2022/05/21 00:27:20;;;;;;;18.00;8.38;;;384.00;2329.60;;;;;;5051281;28;20088;-78
2022/05/21 00:29:46;;;;;;;23.60;7.60;;;384.00;2329.60;;;;;;5050053;28;20048;-78
2022/05/21 00:32:12;;;;;;;26.17;7.82;;;359.30;2329.60;;;;;;5051088;28;20074;-77
2022/05/21 00:34:37;;;;;;;16.33;7.05;;;359.30;2329.60;;;;;;5049956;28;20052;-78
2022/05/21 00:37:04;;;;;;;17.45;7.70;;;359.30;2329.60;;;;;;5051325;28;20109;-76
2022/05/21 00:39:29;;;;;;;22.33;8.68;;;359.30;2329.60;;;;;;5051482;28;20150;-76
2022/05/21 00:41:55;;;;;;;19.52;7.55;;;359.30;2329.60;;;;;;5050966;28;20100;-77
2022/05/21 00:44:21;;;;;;;20.65;7.53;;;359.30;2329.60;;;;;;5050788;28;20021;-78
2022/05/21 00:46:48;;;;;;;12.85;6.97;;;359.30;2329.60;;;;;;5051377;28;20021;-79
2022/05/21 00:49:22;;;;;;;12.48;5.88;;;359.30;2329.60;;;;;;5049894;28;20506;-78
2022/05/21 00:51:54;;;;;;;16.80;7.07;;;359.30;2329.60;;;;;;5050900;28;20476;-78
2022/05/21 00:54:24;;;;;;;16.30;7.05;;;359.30;2329.60;;;;;;5051600;28;20032;-77
2022/05/21 00:56:56;;;;;;;18.00;6.43;;;359.20;2329.60;;;;;;5054444;28;20032;-78
2022/05/21 01:02:08;;;;;;;23.35;11.48;;;359.20;2329.60;;;;;;5054723;28;20032;-78
2022/05/21 01:04:35;;;;;;;13.18;6.07;;;359.20;2329.60;;;;;;5054719;28;20021;-78
2022/05/21 01:07:03;;;;;;;10.07;5.18;;;359.20;2329.60;;;;;;5054863;28;20116;-78
2022/05/21 01:09:30;;;;;;;14.07;5.10;;;359.00;2329.60;;;;;;5053478;28;20033;-77
2022/05/21 01:11:56;;;;;;;10.35;5.38;;;359.00;2329.60;;;;;;5053312;28;20502;-78
2022/05/21 01:14:22;;;;;;;11.07;5.15;;;359.00;2329.60;;;;;;5054582;28;20559;-76
2022/05/21 01:16:50;;;;;;;10.88;6.05;;;359.00;2329.60;;;;;;5053255;28;20035;-77
2022/05/21 01:19:16;;;;;;;12.13;7.90;;;359.00;2329.60;;;;;;5054102;28;20552;-77
2022/05/21 01:21:43;;;;;;;10.10;5.85;;;359.00;2329.60;;;;;;5053110;28;20112;-77
2022/05/21 01:24:11;;;;;;;16.67;7.07;;;359.00;2329.60;;;;;;5052721;28;20036;-79
2022/05/21 01:26:39;;;;;;;16.67;6.78;;;358.90;2329.60;;;;;;5053070;28;20637;-78
2022/05/21 01:29:11;;;;;;;14.98;6.47;;;358.90;2329.60;;;;;;5053757;28;20485;-77
2022/05/21 01:31:38;;;;;;;12.75;6.97;;;358.90;2329.60;;;;;;5052892;28;20025;-79
2022/05/21 01:34:04;;;;;;;11.98;5.57;;;358.70;2329.60;;;;;;5054067;28;20024;-79
2022/05/21 01:36:30;;;;;;;15.57;6.20;;;358.70;2329.60;;;;;;5052900;28;20116;-79
2022/05/21 01:38:56;;;;;;;16.73;6.93;;;358.60;2329.60;;;;;;5053866;28;20032;-78
2022/05/21 01:41:22;;;;;;;12.20;5.25;;;358.60;2329.60;;;;;;5053774;28;20029;-78
2022/05/21 01:44:52;;;;;;;18.05;7.00;;;358.50;2329.60;;;;;;5053947;28;20916;-78
2022/05/21 01:46:43;;;;;;;13.77;6.47;;;358.50;2329.60;;;;;;5044488;28;20059;-78
2022/05/21 01:49:09;;;;;;;10.15;6.25;;;333.60;2329.60;;;;;;5053825;28;20033;-79
2022/05/21 01:51:34;;;;;;;12.27;6.40;;;333.30;2329.60;;;;;;5053196;28;20025;-80
2022/05/21 01:54:00;;;;;;;17.08;6.60;;;333.40;2329.60;;;;;;5053019;28;20028;-78
2022/05/21 01:56:26;;;;;;;14.68;6.68;;;333.50;2329.60;;;;;;5053909;28;20100;-80
2022/05/21 01:58:52;;;;;;;26.42;16.58;;;333.60;2329.60;;;;;;5054071;28;20090;-80
2022/05/21 02:01:18;;;;;;;21.63;12.30;;;333.70;2329.60;;;;;;5052840;28;20028;-79
2022/05/21 02:03:43;;;;;;;16.25;6.47;;;333.70;2329.60;;;;;;5054431;28;20377;-79
2022/05/21 02:06:09;;;;;;;13.32;6.25;;;333.70;2329.60;;;;;;5053813;28;20032;-79
2022/05/21 02:08:35;;;;;;;14.50;7.15;;;333.70;2329.60;;;;;;5052880;28;20546;-79
2022/05/21 02:11:02;;;;;;;17.63;6.93;;;333.70;2329.60;;;;;;5052494;28;20037;-78
2022/05/21 02:13:31;;;;;;;28.00;9.55;;;358.40;2329.60;;;;;;5052399;28;20044;-78
2022/05/21 02:15:57;;;;;;;18.80;7.78;;;358.40;2329.60;;;;;;5052413;28;20037;-80
2022/05/21 02:18:23;;;;;;;11.68;6.30;;;358.40;2329.60;;;;;;5053301;28;20021;-79
2022/05/21 02:20:51;;;;;;;15.75;5.63;;;358.40;2329.60;;;;;;5053572;28;20025;-80
2022/05/21 02:23:17;;;;;;;23.75;6.35;;;358.40;2329.60;;;;;;5052257;28;20032;-79
2022/05/21 02:25:43;;;;;;;9.98;5.70;;;358.40;2329.60;;;;;;5052140;28;20025;-78
2022/05/21 02:28:09;;;;;;;17.88;7.28;;;333.70;2329.60;;;;;;5051885;28;20048;-79
2022/05/21 02:30:36;;;;;;;14.77;5.65;;;333.60;2329.60;;;;;;5053342;28;20167;-79
2022/05/21 02:33:02;;;;;;;20.20;6.90;;;333.60;2329.60;;;;;;5052159;28;20467;-79
2022/05/21 02:35:27;;;;;;;10.15;5.75;;;333.60;2329.60;;;;;;5052182;28;20132;-79
2022/05/21 02:40:37;;;;;;;;;;;333.50;2329.60;;;;;;5053264;28;20070;-77
2022/05/21 02:43:03;;;;;;;10.25;5.28;;;333.50;2329.60;;;;;;5051722;28;20003;-77
2022/05/21 02:45:29;;;;;;;12.13;5.88;;;333.40;2329.60;;;;;;5052772;28;20029;-77
2022/05/21 02:47:56;;;;;;;12.63;6.00;;;333.40;2329.60;;;;;;5052680;28;20025;-78
2022/05/21 02:50:25;;;;;;;18.45;6.40;;;333.40;2329.60;;;;;;5051547;28;20070;-77
2022/05/21 02:52:50;;;;;;;19.52;6.20;;;333.30;2329.60;;;;;;5051692;28;20021;-77
2022/05/21 02:55:17;;;;;;;28.23;8.27;;;333.20;2329.60;;;;;;5051690;28;20460;-78
2022/05/21 02:57:44;;;;;;;18.30;6.63;;;333.10;2329.60;;;;;;5051406;28;20102;-78
2022/05/21 03:00:17;;;;;;;16.10;5.85;;;333.10;2329.60;;;;;;5052671;28;20021;-78
2022/05/21 03:02:43;;;;;;;20.67;6.85;;;333.10;2329.60;;;;;;5052607;28;20513;-79
2022/05/21 03:05:09;;;;;;;16.35;6.82;;;333.10;2329.60;;;;;;5051540;28;20068;-78
2022/05/21 03:07:38;;;;;;;16.17;6.95;;;333.10;2329.60;;;;;;5051055;28;20029;-78
2022/05/21 03:10:23;;;;;;;14.18;6.20;;;333.00;2329.60;;;;;;5052353;28;20502;-79
2022/05/21 03:12:51;;;;;;;21.17;7.20;;;333.00;2329.60;;;;;;5051220;28;20029;-77
2022/05/21 03:15:18;;;;;;;21.15;7.18;;;333.00;2329.60;;;;;;5052374;28;20092;-78
2022/05/21 03:17:46;;;;;;;18.75;6.38;;;333.10;2329.60;;;;;;5050324;28;20025;-78
2022/05/21 03:20:13;;;;;;;14.15;5.32;;;333.10;2329.60;;;;;;5051089;28;20025;-79
2022/05/21 03:22:41;;;;;;;15.48;8.07;;;333.10;2329.60;;;;;;5051254;28;20499;-79
2022/05/21 03:25:07;;;;;;;16.50;7.00;;;333.10;2329.60;;;;;;5052440;28;20021;-78
2022/05/21 03:27:33;;;;;;;15.52;5.28;;;333.20;2329.60;;;;;;5050751;28;20049;-79
2022/05/21 03:29:59;;;;;;;14.30;5.43;;;333.20;2329.60;;;;;;5052260;28;20036;-79
2022/05/21 03:32:25;;;;;;;19.02;7.85;;;333.20;2329.60;;;;;;5052293;28;20040;-79
2022/05/21 03:34:50;;;;;;;18.15;6.38;;;333.20;2329.60;;;;;;5052445;28;20096;-79
2022/05/21 03:37:16;;;;;;;16.45;5.97;;;333.30;2329.60;;;;;;5051167;28;20017;-78
2022/05/21 03:39:42;;;;;;;15.13;6.80;;;333.30;2329.60;;;;;;5051049;28;20469;-78
2022/05/21 03:42:09;;;;;;;10.35;6.43;;;333.40;2329.60;;;;;;5051045;28;20025;-80
2022/05/21 03:44:35;;;;;;;12.80;5.97;;;333.50;2329.60;;;;;;5051023;28;20025;-79
2022/05/21 03:47:01;;;;;;;16.25;6.15;;;333.50;2329.60;;;;;;5050955;28;20472;-79
2022/05/21 03:49:27;;;;;;;11.70;5.47;;;333.60;2329.60;;;;;;5050648;28;20104;-78
2022/05/21 03:51:53;;;;;;;17.48;7.07;;;333.70;2329.60;;;;;;5050573;28;20108;-78
2022/05/21 03:54:18;;;;;;;11.80;6.63;;;358.40;2329.60;;;;;;5051561;28;20096;-78
2022/05/21 03:56:44;;;;;;;16.08;5.72;;;358.40;2329.60;;;;;;5050680;28;20029;-78
2022/05/21 03:59:10;;;;;;;18.77;6.93;;;358.60;2329.60;;;;;;5051760;28;20658;-79
2022/05/21 04:01:36;;;;;;;15.30;5.32;;;358.60;2329.60;;;;;;5049873;28;20387;-79
2022/05/21 04:04:03;;;;;;;16.70;6.30;;;358.80;2329.60;;;;;;5050567;28;20021;-79
2022/05/21 04:06:28;;;;;;;8.98;6.07;;;358.90;2329.60;;;;;;5051086;28;20186;-79
2022/05/21 04:08:54;;;;;;;17.27;5.88;;;358.90;2329.60;;;;;;5050321;28;20520;-79
2022/05/21 04:11:20;;;;;;;9.75;5.55;;;359.00;2329.60;;;;;;5052311;28;20389;-83
2022/05/21 04:13:45;;;;;;;17.50;6.13;;;358.80;2329.60;;;;;;5052301;28;20029;-83
2022/05/21 04:16:11;;;;;;;13.07;6.35;;;358.40;2329.60;;;;;;5052653;28;20028;-82
2022/05/21 04:18:37;;;;;;;16.05;6.13;;;358.60;2329.60;;;;;;5052224;28;20025;-80
2022/05/21 04:21:03;;;;;;;14.30;6.55;;;358.50;2329.60;;;;;;5052099;28;20032;-82
2022/05/21 04:23:28;;;;;;;16.08;5.90;;;358.50;2329.60;;;;;;5052158;28;20029;-83
2022/05/21 04:25:54;;;;;;;19.08;6.35;;;358.80;2329.60;;;;;;5051173;28;20036;-81
2022/05/21 04:28:20;;;;;;;15.25;6.35;;;359.10;2329.60;;;;;;5052657;28;20077;-79
2022/05/21 04:30:45;;;;;;;15.60;5.70;;;359.30;2329.60;;;;;;5037594;28;20040;-79
2022/05/21 04:33:11;;;;;;;16.02;6.25;;;384.10;2329.60;;;;;;5035530;28;20477;-76
2022/05/21 04:38:21;;;;;;;;;;;384.00;2329.60;;;;;;5035753;28;20041;-77
2022/05/21 04:40:47;;;;;;;16.48;7.43;;;359.00;2329.60;;;;;;5034200;28;19909;-78
2022/05/21 04:43:13;;;;;;;16.27;5.82;;;358.90;2329.60;;;;;;5034369;28;20079;-77
2022/05/21 04:45:39;;;;;;;11.52;5.50;;;359.00;2329.60;;;;;;5034236;28;20029;-78
2022/05/21 04:48:07;;;;;;;8.15;4.72;;;358.90;2329.60;;;;;;5034303;28;20029;-78
2022/05/21 04:50:38;;;;;;;13.73;6.95;;;358.80;2329.60;;;;;;5034077;28;20107;-79
2022/05/21 04:53:04;;;;;;;14.13;6.85;;;358.90;2329.60;;;;;;5052558;28;20025;-80
2022/05/21 04:55:30;;;;;;;12.48;4.75;;;359.00;2329.60;;;;;;5053750;28;20108;-78
2022/05/21 04:57:55;;;;;;;10.82;5.10;;;359.10;2329.60;;;;;;5053301;28;20151;-78
2022/05/21 05:00:21;;;;;;;8.65;5.00;;;359.20;2329.60;;;;;;5050653;28;20024;-79
2022/05/21 05:02:47;;;;;;;11.98;5.90;;;384.20;2329.60;;;;;;5053407;28;20021;-79
2022/05/21 05:05:14;;;;;;;19.55;6.88;;;;;;;;;;5053322;28;20032;-78
2022/05/21 05:07:40;;;;;;;21.40;11.27;;;409.90;2355.20;;;;;;5054313;28;20075;-78
2022/05/21 05:10:08;;;;;;;15.13;7.70;;;409.90;2355.20;;;;;;5086606;28;20029;-78
2022/05/21 05:12:33;;;;;;;16.58;7.20;;;410.10;2355.20;;;;;;5052861;28;20026;-78
2022/05/21 05:15:00;;;;;;;11.60;5.20;;;410.40;2355.20;;;;;;5052736;28;20081;-78
2022/05/21 05:17:27;;;;;;;13.77;5.85;;;435.30;2355.20;;;;;;5052770;28;20083;-77
2022/05/21 05:19:54;;;;;;;9.82;5.40;;;435.40;2355.20;;;;;;5055020;28;20092;-81
2022/05/21 05:22:21;;;;;;;11.13;7.00;;;435.50;2355.20;;;;;;5055234;28;20054;-83
2022/05/21 05:24:46;;;;;;;13.25;5.65;;;435.60;2355.20;;;;;;5054911;28;20025;-78
2022/05/21 05:27:12;;;;;;;17.48;6.05;;;435.50;2355.20;;;;;;5054740;28;20048;-77
2022/05/21 05:29:38;;;;;;;16.30;5.72;;;435.70;2355.20;;;;;;5053711;28;20044;-78
2022/05/21 05:32:05;;;;;;;10.80;4.82;;;435.90;2355.20;;;;;;5054970;28;20384;-80
2022/05/21 05:34:31;;;;;;;9.80;6.53;;;435.80;2355.20;;;;;;5053187;28;20032;-78
2022/05/21 05:36:57;;;;;;;19.40;6.65;;;435.70;2355.20;;;;;;5052488;28;20068;-78
2022/05/21 05:39:22;;;;;;;16.00;6.80;;;436.10;2355.20;;;;;;5053978;28;20071;-79
2022/05/21 05:41:49;;;;;;;11.25;6.10;;;460.80;2380.80;;;;;;5051934;28;20082;-77
2022/05/21 05:44:15;;;;;;;12.80;7.35;;;461.20;2380.80;;;;;;5053113;28;20091;-80
2022/05/21 05:46:41;;;;;;;8.60;5.15;;;461.20;2380.80;;;;;;5051774;28;20021;-78
2022/05/21 05:49:08;;;;;;;11.65;5.93;;;461.30;2380.80;;;;;;5052098;28;20063;-77
2022/05/21 05:51:34;;;;;;;12.43;5.95;;;461.30;2380.80;;;;;;5053021;28;20024;-79
2022/05/21 05:54:00;;;;;;;14.82;5.93;;;461.50;2380.80;;;;;;5053290;28;20029;-80
2022/05/21 05:56:26;;;;;;;10.93;6.15;;;461.60;2380.80;;;;;;5053196;28;20025;-78
2022/05/21 06:01:36;;;;;;;16.02;7.13;;;486.70;2380.80;;;;;;5054264;28;20388;-79
2022/05/21 06:04:02;;;;;;;17.38;6.68;;;486.90;2380.80;;;;;;5052862;28;20048;-78
2022/05/21 06:06:30;;;;;;;14.27;7.38;;;486.80;2380.80;;;;;;5053963;28;20025;-78
2022/05/21 06:08:56;;;;;;;21.75;6.63;;;486.80;2380.80;;;;;;5053972;28;20017;-78
2022/05/21 06:11:21;;;;;;;16.95;6.82;;;486.80;2380.80;;;;;;5053992;28;20022;-78
2022/05/21 06:13:47;;;;;;;14.00;6.97;;;486.90;2380.80;;;;;;5053954;28;20021;-79
2022/05/21 06:16:15;;;;;;;12.68;5.80;;;486.50;2304.00;;;;;;5054086;28;20025;-78
2022/05/21 06:18:41;;;;;;;17.08;6.25;;;486.50;2201.60;;;;;;5052727;28;20119;-78
2022/05/21 06:21:08;;;;;;;13.82;6.10;;;486.90;2252.80;;;;;;5052785;28;20115;-78
2022/05/21 06:23:34;;;;;;;13.52;5.65;;;487.10;2150.40;;;;;;5052530;28;20035;-77
2022/05/21 06:26:01;;;;;;;14.63;6.05;;;512.00;2124.80;;;;;;5053349;28;20029;-78
2022/05/21 06:28:28;;;;;;;11.82;5.70;;;512.10;2099.20;;;;;;5051952;28;20049;-77
2022/05/21 06:30:54;;;;;;;13.82;6.90;;;512.40;2073.60;;;;;;5053421;28;20033;-77
2022/05/21 06:33:26;;;;;;;19.20;6.57;;;512.10;2073.60;;;;;;5052274;28;20036;-78
2022/05/21 06:36:07;;;;;;;14.93;6.50;;;512.50;2048.00;;;;;;5052248;28;20032;-78
2022/05/21 06:38:34;;;;;;;12.05;6.88;;;537.60;1996.80;;;;;;5051965;28;20029;-79
2022/05/21 06:41:01;;;;;;;16.65;7.32;;;537.90;1945.60;;;;;;5053313;28;20029;-78
2022/05/21 06:43:27;;;;;;;16.30;7.38;;;537.60;1920.00;;;;;;5052082;28;20064;-77
2022/05/21 06:45:53;;;;;;;19.15;6.40;;;537.90;1868.80;;;;;;5053348;28;20376;-77
2022/05/21 06:48:18;;;;;;;14.98;6.65;;;538.00;1868.80;;;;;;5052246;28;20036;-77
2022/05/21 06:50:45;;;;;;;13.25;7.05;;;538.30;1894.40;;;;;;5051599;28;20040;-77
2022/05/21 06:53:11;;;;;;;17.27;6.45;;;538.40;1843.20;;;;;;5051827;28;20487;-78
2022/05/21 06:55:38;;;;;;;12.95;6.60;;;563.30;1868.80;;;;;;5051912;28;20113;-77
2022/05/21 06:58:04;;;;;;;13.93;6.55;;;563.50;1817.60;;;;;;5052933;28;20021;-78
2022/05/21 07:00:30;;;;;;;16.98;6.03;;;563.80;1766.40;;;;;;5051633;28;20021;-78
2022/05/21 07:02:55;;;;;;;17.25;6.78;;;564.10;1689.60;;;;;;5051690;28;20089;-77
2022/05/21 07:08:22;;;;;;;14.45;5.57;;;589.20;1561.60;;;;;;5052779;28;20124;-78
2022/05/21 07:10:48;;;;;;;12.73;5.72;;;589.30;1587.20;;;;;;5051779;28;20040;-78
2022/05/21 07:13:16;;;;;;;13.27;5.75;;;589.40;1536.00;;;;;;5052759;28;20021;-77
2022/05/21 07:15:43;;;;;;;16.08;5.50;;;589.20;1536.00;;;;;;5051567;28;20734;-78
2022/05/21 07:18:09;;;;;;;8.73;4.40;;;589.30;1510.40;;;;;;5053165;28;20464;-78
2022/05/21 07:20:34;;;;;;;10.20;4.75;;;588.80;1587.20;;;;;;5052885;28;20017;-78
2022/05/21 07:23:00;;;;;;;9.25;5.30;;;588.90;1561.60;;;;;;5051421;28;20162;-79
2022/05/21 07:25:28;;;;;;;11.55;5.43;;;588.80;1561.60;;;;;;5051008;28;20021;-78
2022/05/21 07:27:54;;;;;;;11.93;4.93;;;589.10;1587.20;;;;;;5052920;28;20048;-82
2022/05/21 07:30:20;;;;;;;12.07;4.80;;;589.00;1587.20;;;;;;5051500;28;20397;-81
2022/05/21 07:32:50;;;;;;;11.25;4.53;;;589.10;1587.20;;;;;;5051784;28;20075;-82
2022/05/21 07:35:18;;;;;;;10.93;5.50;;;589.60;1536.00;;;;;;5051505;28;20104;-81
2022/05/21 07:37:44;;;;;;;10.73;4.80;;;614.90;1510.40;;;;;;5051227;28;20060;-82
2022/05/21 07:40:11;;;;;;;17.33;5.80;;;614.90;1510.40;;;;;;5051361;28;20072;-82
2022/05/21 07:42:37;;;;;;;16.50;6.07;;;614.90;1536.00;;;;;;5052594;28;20404;-82
2022/05/21 07:45:05;;;;;;;10.45;4.28;;;614.90;1536.00;;;;;;5052532;28;20104;-82
2022/05/21 07:47:30;;;;;;;14.77;5.50;;;615.10;1536.00;;;;;;5053980;28;20048;-82
2022/05/21 07:49:56;;;;;;;13.23;5.00;;;615.20;1536.00;;;;;;5054299;28;20033;-83
2022/05/21 07:52:24;;;;;;;20.25;5.72;;;615.20;1510.40;;;;;;5052765;28;20067;-81
2022/05/21 07:54:49;;;;;;;14.68;5.20;;;615.30;1510.40;;;;;;5051185;28;20064;-82
2022/05/21 07:57:15;;;;;;;14.98;5.97;;;640.00;1510.40;;;;;;5051310;28;20025;-82
2022/05/21 07:59:41;;;;;;;10.30;4.68;;;640.20;1484.80;;;;;;5051024;28;20021;-81
2022/05/21 08:02:11;;;;;;;11.48;4.80;;;640.40;1484.80;;;;;;5052238;28;20026;-82
2022/05/21 08:04:37;;;;;;;11.45;5.00;;;640.60;1459.20;;;;;;5054455;28;20463;-82
2022/05/21 08:07:03;;;;;;;11.23;5.32;;;640.30;1484.80;;;;;;5056600;28;20032;-82
2022/05/21 08:09:28;;;;;;;10.93;5.13;;;640.60;1484.80;;;;;;5055230;28;20068;-82
2022/05/21 08:11:54;;;;;;;11.77;5.40;;;640.80;1459.20;;;;;;5055266;28;20467;-82
2022/05/21 08:14:20;;;;;;;15.70;6.57;;;640.90;1459.20;;;;;;5056444;28;20025;-82
2022/05/21 08:16:47;;;;;;;18.42;7.65;;;665.70;1484.80;;;;;;5056301;28;20028;-82
2022/05/21 08:19:13;;;;;;;14.52;5.70;;;665.90;1459.20;;;;;;5055286;28;20036;-81
2022/05/21 08:21:39;;;;;;;18.65;6.03;;;665.90;1484.80;;;;;;5055745;28;20029;-82
2022/05/21 08:27:02;;;;;;;20.30;6.22;;;666.00;1459.20;;;;;;5056446;28;20042;-82
2022/05/21 08:29:31;;;;;;;12.45;6.70;;;666.20;1459.20;;;;;;5054758;28;20128;-83
2022/05/21 08:31:57;;;;;;;12.98;6.38;;;666.40;1459.20;;;;;;5056085;28;20108;-82
2022/05/21 08:34:25;;;;;;;15.98;6.18;;;666.40;1433.60;;;;;;5054883;28;20033;-83
2022/05/21 08:36:51;;;;;;;11.27;6.68;;;691.20;1433.60;;;;;;5056178;28;20021;-83
2022/05/21 08:39:18;;;;;;;9.32;5.60;;;691.30;1433.60;;;;;;5056009;28;20025;-83
2022/05/21 08:41:56;;;;;;;15.32;5.32;;;666.50;1433.60;;;;;;5054749;28;20063;-82
2022/05/21 08:44:52;;;;;;;11.10;5.82;;;691.30;1433.60;;;;;;5054927;28;20025;-83
2022/05/21 08:47:27;;;;;;;14.63;5.43;;;691.60;1433.60;;;;;;5055830;28;20051;-83
2022/05/21 08:50:13;;;;;;;10.27;6.38;;;691.60;1459.20;;;;;;5056018;28;20111;-83
2022/05/21 08:52:49;;;;;;;11.60;5.47;;;691.70;1408.00;;;;;;5056041;28;20075;-83
2022/05/21 08:55:20;;;;;;;9.05;5.18;;;692.00;1433.60;;;;;;5055080;28;20119;-83
2022/05/21 08:57:53;;;;;;;12.07;5.53;;;692.10;1433.60;;;;;;5055661;28;20124;-83
2022/05/21 09:00:23;;;;;;;11.35;5.15;;;692.00;1433.60;;;;;;5054521;28;20542;-83
2022/05/21 09:02:50;;;;;;;11.27;4.38;;;692.00;1433.60;;;;;;5054399;28;20025;-83
2022/05/21 09:05:19;;;;;;;11.25;5.38;;;692.10;1408.00;;;;;;5054753;28;20024;-84
2022/05/21 09:08:18;;;;;;;11.43;5.28;;;692.10;1433.60;;;;;;5055451;28;20079;-83
2022/05/21 09:10:55;;;;;;;9.70;5.10;;;692.00;1433.60;;;;;;5055388;28;20388;-85
2022/05/21 09:13:46;;;;;;;6.55;3.97;;;716.90;1484.80;;;;;;5055344;28;20036;-78
2022/05/21 09:19:01;;;;;;;16.48;5.03;;;717.10;1459.20;;;;;;5055152;28;20032;-83
2022/05/21 09:21:28;;;;;;;6.07;3.80;;;717.10;1459.20;;;;;;5054076;28;20094;-79
2022/05/21 09:23:58;;;;;;;13.85;4.47;;;692.10;1459.20;;;;;;5053427;28;20028;-79
2022/05/21 09:26:27;;;;;;;10.40;4.63;;;717.00;1459.20;;;;;;5053728;28;20103;-78
2022/05/21 09:29:21;;;;;;;8.95;5.00;;;717.20;1459.20;;;;;;5054951;28;20053;-84
2022/05/21 09:31:47;;;;;;;11.30;5.35;;;717.10;1459.20;;;;;;5053022;28;20083;-83
2022/05/21 09:34:28;;;;;;;8.43;3.83;;;716.90;1484.80;;;;;;5054623;28;20057;-84
2022/05/21 09:36:56;;;;;;;9.52;4.15;;;717.00;1459.20;;;;;;5035450;28;20022;-83
2022/05/21 09:39:32;;;;;;;9.20;5.00;;;692.10;1459.20;;;;;;5034055;28;20030;-85
2022/05/21 09:45:22;;;;;;;10.27;4.57;;;717.00;1484.80;;;;;;5034919;28;20030;-85
2022/05/21 09:45:22;;;;;;;15.48;5.30;;;717.30;1459.20;;;;;;5049797;28;20033;-82
2022/05/21 09:47:49;;;;;;;6.05;4.30;;;717.70;1433.60;;;;;;5034771;28;20028;-78
2022/05/21 09:50:23;;;;;;;9.60;4.28;;;742.60;1484.80;;;;;;5050248;28;20037;-79
2022/05/21 09:52:49;;;;;;;6.63;4.18;;;742.70;1484.80;;;;;;5053531;28;20525;-78
2022/05/21 09:55:23;;;;;;;7.55;3.45;;;717.40;1459.20;;;;;;5052632;28;20069;-79
2022/05/21 09:57:49;;;;;;;15.80;4.45;;;717.30;1433.60;;;;;;5053016;28;20031;-78
2022/05/21 10:00:23;;;;;;;9.73;4.40;;;717.30;1484.80;;;;;;5052827;28;20104;-78
2022/05/21 10:02:54;;;;;;;12.60;5.50;;;717.70;1433.60;;;;;;5053063;28;20468;-78
2022/05/21 10:05:37;;;;;;;13.75;4.47;;;742.60;1484.80;;;;;;5054104;28;20021;-78
2022/05/21 10:11:28;;;;;;;9.18;5.30;;;717.50;1484.80;;;;;;5053749;28;20048;-78
2022/05/21 10:14:12;;;;;;;7.70;3.95;;;717.40;1459.20;;;;;;5052396;28;20021;-77
2022/05/21 10:17:05;;;;;;;7.88;4.70;;;717.30;1484.80;;;;;;5052135;28;20029;-78
2022/05/21 10:20:02;;;;;;;8.70;4.87;;;717.20;1484.80;;;;;;5049271;28;20068;-79
2022/05/21 10:22:38;;;;;;;12.48;4.68;;;717.60;1459.20;;;;;;5052258;28;20033;-77
2022/05/21 10:25:22;;;;;;;11.05;4.65;;;742.80;1484.80;;;;;;5052212;28;20029;-78
2022/05/21 10:27:47;;;;;;;9.95;4.43;;;743.00;1408.00;;;;;;5051796;28;20106;-78
2022/05/21 10:30:27;;;;;;;7.38;4.97;;;742.90;1459.20;;;;;;5051929;28;20041;-79
2022/05/21 10:33:16;;;;;;;10.38;5.80;;;742.90;1433.60;;;;;;5052042;28;20391;-77
2022/05/21 10:35:59;;;;;;;8.63;4.70;;;768.00;1408.00;;;;;;5052091;28;20029;-77
2022/05/21 10:38:25;;;;;;;11.05;4.97;;;;;;;;;;5051959;28;20029;-78
2022/05/21 10:40:54;;;;;;;9.88;4.97;;;;;;;;;;5052002;28;20071;-78
2022/05/21 10:43:37;;;;;;;9.52;4.85;;;768.80;1356.80;;;;;;5051818;28;20112;-78
2022/05/21 10:46:36;;;;;;;8.87;4.40;;;768.90;1331.20;;;;;;5051608;28;20119;-77
2022/05/21 10:49:34;;;;;;;7.57;3.88;;;768.00;1433.60;;;;;;5051460;28;20270;-77
2022/05/21 10:52:11;;;;;;;7.90;4.95;;;743.20;1484.80;;;;;;5051637;28;20059;-78
2022/05/21 10:55:06;;;;;;;5.55;3.75;;;743.20;1408.00;;;;;;5050300;28;20029;-78
2022/05/21 10:57:50;;;;;;;12.55;5.03;;;768.00;1356.80;;;;;;5034110;28;20040;-77
2022/05/21 11:00:25;;;;;;;7.13;4.00;;;;;;;;;;5051184;28;21197;-78
2022/05/21 11:03:10;;;;;;;6.75;3.47;;;;;;;;;;5051410;28;20068;-78
2022/05/21 11:05:36;;;;;;;7.25;3.88;;;;;;;;;;5051312;28;20075;-78
2022/05/21 11:08:05;;;;;;;6.28;3.55;;;;;;;;;;5052830;28;20025;-79
2022/05/21 11:10:44;;;;;;;6.32;3.83;;;;;;;;;;5051222;28;20033;-78
2022/05/21 11:13:12;;;;;;;7.88;3.60;;;;;;;;;;5051311;28;20025;-78
2022/05/21 11:15:42;;;;;;;5.63;3.92;;;;;;;;;;5051282;28;20025;-79
2022/05/21 11:18:16;;;;;;;4.20;3.40;;;793.60;1356.80;;;;;;5051248;28;20021;-78
2022/05/21 11:20:55;;;;;;;5.50;3.78;;;743.30;1382.40;;;;;;5051068;28;20112;-78
2022/05/21 11:23:29;;;;;;;8.65;4.53;;;743.30;1433.60;;;;;;5051187;28;20079;-78
2022/05/21 11:26:04;;;;;;;9.57;4.47;;;768.00;1433.60;;;;;;5051117;28;20053;-78
2022/05/21 11:28:52;;;;;;;12.38;5.18;;;768.10;1382.40;;;;;;5051284;28;20053;-77
2022/05/21 11:37:22;;;;;;;7.22;3.60;;;768.00;1484.80;;;;;;5051776;28;20048;-77
2022/05/21 11:39:50;;;;;;;5.70;3.10;;;743.20;1459.20;;;;;;5051769;28;20491;-78
2022/05/21 11:42:22;;;;;;;4.70;2.90;;;768.30;1484.80;;;;;;5050827;28;20074;-78
2022/05/21 11:45:01;;;;;;;5.00;3.92;;;743.20;1561.60;;;;;;5052149;28;20021;-81
2022/05/21 11:47:27;;;;;;;6.47;3.30;;;768.00;1561.60;;;;;;5052455;28;20033;-79
2022/05/21 11:49:53;;;;;;;7.05;3.10;;;;;;;;;;5051123;28;20063;-79
2022/05/21 11:52:27;;;;;;;7.85;3.60;;;742.90;1612.80;;;;;;5050984;28;20522;-79
2022/05/21 11:54:53;;;;;;;8.57;3.10;;;742.90;1612.80;;;;;;5047968;28;20060;-79
2022/05/21 11:57:40;;;;;;;8.02;4.03;;;742.80;1612.80;;;;;;5050926;28;20064;-79
2022/05/21 12:00:06;;;;;;;12.60;3.80;;;742.80;1638.40;;;;;;5052059;28;20082;-78
2022/05/21 12:02:34;;;;;;;10.93;4.45;;;743.00;1638.40;;;;;;5050112;28;20021;-78
2022/05/21 12:05:05;;;;;;;5.88;4.35;;;743.20;1612.80;;;;;;5053071;28;20021;-79
2022/05/21 12:07:48;;;;;;;6.78;4.22;;;742.90;1587.20;;;;;;5050232;28;20445;-80
2022/05/21 12:10:19;;;;;;;10.85;4.78;;;743.00;1612.80;;;;;;5051628;28;20033;-83
2022/05/21 12:13:12;;;;;;;5.72;4.10;;;768.00;1561.60;;;;;;5051078;28;20025;-83
2022/05/21 12:15:48;;;;;;;7.22;4.68;;;768.00;1561.60;;;;;;5050618;28;20029;-83
2022/05/21 12:18:25;;;;;;;7.05;4.32;;;768.00;1561.60;;;;;;5050688;28;20103;-82
2022/05/21 12:20:52;;;;;;;10.55;5.22;;;743.10;1561.60;;;;;;5052319;28;20067;-81
2022/05/21 12:23:26;;;;;;;9.82;4.25;;;793.70;1536.00;;;;;;5052212;28;20369;-84
2022/05/21 12:25:54;;;;;;;10.65;4.75;;;793.90;1484.80;;;;;;5052096;28;20072;-81
2022/05/21 12:28:21;;;;;;;12.35;4.85;;;794.20;1484.80;;;;;;5052028;28;20041;-81
2022/05/21 12:30:48;;;;;;;6.00;4.25;;;768.80;1510.40;;;;;;5051275;28;20043;-84
2022/05/21 12:33:24;;;;;;;12.80;4.90;;;794.40;1459.20;;;;;;5052331;28;20067;-84
2022/05/21 12:36:06;;;;;;;7.97;6.72;;;819.50;1408.00;;;;;;5052013;28;20032;-85
2022/05/21 12:38:35;;;;;;;6.85;4.70;;;819.50;1433.60;;;;;;5050769;28;20026;-84
2022/05/21 12:41:19;;;;;;;11.23;4.85;;;819.50;1408.00;;;;;;5050893;28;20075;-85
2022/05/21 12:43:47;;;;;;;6.65;4.57;;;845.10;1356.80;;;;;;5051592;28;20033;-82
2022/05/21 12:46:20;;;;;;;10.95;5.15;;;845.70;1305.60;;;;;;5050993;28;20109;-77
2022/05/21 12:48:46;;;;;;;6.22;3.40;;;845.30;1331.20;;;;;;5050986;28;20071;-78
2022/05/21 12:51:26;;;;;;;7.90;3.53;;;820.00;1331.20;;;;;;5054312;28;20047;-79
2022/05/21 12:53:53;;;;;;;9.15;3.42;;;870.90;1280.00;;;;;;5053673;28;20070;-78
2022/05/21 12:56:27;;;;;;;5.38;3.75;;;870.60;1254.40;;;;;;5054108;28;20135;-78